Laurie, MO (65038)

4:13 AM CST on January 22, 2017 (GMT -0600)
Elsie and Einstein's Nest | | Change Station

Elev 820 ft 38.20 °N, 92.78 °W | Updated 1 minute ago

Rain
Rain
48.1 °F
Feels Like 48 °F
N
2.0
Wind Variable Wind from West

Today
High -- | Low -- °F
--% Chance of Precip.
Yesterday
High -- | Low -- °F
Precip. -- in
Pressure 28.85 in
Visibility 10.0 miles
Clouds Few 3800 ft
Mostly Cloudy 7000 ft
Overcast 10000 ft
Windchill 48 °F
Dew Point 46 °F
Humidity 92%
Rainfall 0.05 in
Snow Depth Not available.
7:23 AM 5:23 PM
Waning Crescent, 27% visible
METAR KAIZ 220956Z AUTO 05011KT 10SM -RA FEW038 BKN070 OVC100 09/08 A2948 RMK AO2 LTG DSNT SE-SW RAB46 SLP768 P0000 T00940078
Pressure 28.85 in
Visibility 10.0 miles
Clouds Few 3800 ft
Mostly Cloudy 7000 ft
Overcast 10000 ft
Windchill 48 °F
Dew Point 46 °F
Humidity 92%
Rainfall 0.05 in
Snow Depth Not available.
7:23 AM 5:23 PM
Waning Crescent, 27% visible
METAR KAIZ 220956Z AUTO 05011KT 10SM -RA FEW038 BKN070 OVC100 09/08 A2948 RMK AO2 LTG DSNT SE-SW RAB46 SLP768 P0000 T00940078

Get Your Daily Forecast Email!

Thanks for signing up!

Be on the lookout for a verification email in your inbox.

You'll start receiving the daily forecast at 8 AM.

×

10-Day Weather Forecast

Almanac

Astronomy

Jan. 22, 2017 Rise Set
Actual Time
Civil Twilight
Nautical Twilight
Astronomical Twilight
Moon
Length of Visible Light
Length of Day
Tomorrow will be .
, % of the Moon is Illuminated

Today's Extremes

State Highs State Lows

Community

WunderPhotos

Upload Photos

1,962,540 photos uploaded!

WunderBlog® & News

Nearby

Air Quality

  Air Quality AQ Index Pollutant
Not available.

Snow Depth

Station Depth Elevation

Earthquake Activity

City Distance Mag. Time & Date
Minimum magnitude displayed is 2.5.

Coastal Water Temperatures

Place Temperature

Stations

Nearby Weather Stations

Station Location Temp. Windchill Dew Point Humidity Wind Precip. Elev Updated Type
                   

Watches & Warnings

There are currently no watches in effect.